Time;durP1;ratioP1;P1;durP2;ratioP2;P2;SDS_P1;SDS_P2;PMS_P1;PMS_P2;Temp;Humidity;BMP_temperature;BMP_pressure;BME280_temperature;BME280_humidity;BME280_pressure;Samples;Min_cycle;Max_cycle;Signal;HPM_P1;HPM_P2
2024/04/14 00:00:21;;;;;;;3.83;3.53;;;15.60;1.00;;;;;;5507335;26;20532;-39
2024/04/14 00:02:47;;;;;;;4.13;3.27;;;15.60;1.00;;;;;;5493747;26;20537;-40
2024/04/14 00:05:12;;;;;;;4.73;4.10;;;15.50;1.00;;;;;;5491215;26;20665;-40
2024/04/14 00:07:38;;;;;;;5.40;4.43;;;15.50;1.00;;;;;;5490394;26;20216;-37
2024/04/14 00:10:04;;;;;;;3.87;3.23;;;15.50;1.00;;;;;;5488836;26;20233;-39
2024/04/14 00:12:29;;;;;;;5.33;3.97;;;15.50;1.00;;;;;;5490726;26;20270;-38
2024/04/14 00:14:55;;;;;;;3.57;3.27;;;15.50;1.00;;;;;;5490695;26;20501;-36
2024/04/14 00:17:21;;;;;;;4.77;3.50;;;15.60;1.00;;;;;;5490224;26;20697;-39
2024/04/14 00:19:52;;;;;;;4.70;3.97;;;15.60;1.00;;;;;;5490761;26;20340;-38
2024/04/14 00:22:18;;;;;;;5.10;2.97;;;15.60;1.00;;;;;;5489575;26;20356;-39
2024/04/14 00:24:43;;;;;;;2.90;2.70;;;15.60;99.90;;;;;;5490555;26;20971;-38
2024/04/14 00:27:09;;;;;;;3.60;3.20;;;15.60;99.90;;;;;;5490199;26;20225;-39
2024/04/14 00:29:34;;;;;;;3.43;3.00;;;15.70;99.90;;;;;;5490594;26;20267;-39
2024/04/14 00:32:00;;;;;;;3.50;3.20;;;15.70;99.90;;;;;;5489199;26;20341;-39
2024/04/14 00:34:26;;;;;;;3.30;2.90;;;15.70;99.90;;;;;;5488672;26;20376;-38
2024/04/14 00:36:51;;;;;;;5.07;3.00;;;15.80;99.90;;;;;;5487418;26;20625;-37
2024/04/14 00:39:17;;;;;;;3.33;3.03;;;15.80;99.90;;;;;;5486492;26;20232;-38
2024/04/14 00:41:42;;;;;;;3.60;3.30;;;15.80;99.90;;;;;;5489053;26;20270;-38
2024/04/14 00:44:08;;;;;;;3.23;2.93;;;15.70;99.90;;;;;;5488821;26;20591;-38
2024/04/14 00:46:33;;;;;;;2.93;2.63;;;15.70;99.90;;;;;;5486105;26;20237;-37
2024/04/14 00:48:59;;;;;;;3.03;2.27;;;15.70;99.90;;;;;;5485565;26;20233;-38
2024/04/14 00:51:25;;;;;;;2.63;2.30;;;15.80;99.90;;;;;;5486736;26;20364;-37
2024/04/14 00:53:51;;;;;;;2.40;2.20;;;15.90;99.90;;;;;;5456233;26;20572;-37
2024/04/14 00:56:17;;;;;;;2.90;2.60;;;15.90;99.90;;;;;;5488453;26;20217;-37
2024/04/14 00:58:45;;;;;;;2.67;2.47;;;16.00;99.90;;;;;;5457357;26;20438;-37
2024/04/14 01:01:11;;;;;;;6.03;2.67;;;16.00;99.90;;;;;;5458291;26;20469;-39
2024/04/14 01:03:37;;;;;;;2.53;2.30;;;16.00;99.90;;;;;;5462128;26;20458;-38
2024/04/14 01:06:03;;;;;;;3.07;2.77;;;16.00;99.90;;;;;;5462200;26;20453;-37
2024/04/14 01:08:28;;;;;;;3.30;2.60;;;16.00;99.90;;;;;;5494320;26;20233;-37
2024/04/14 01:10:54;;;;;;;2.60;2.00;;;15.90;99.90;;;;;;5495182;26;20715;-37
2024/04/14 01:13:19;;;;;;;2.43;2.20;;;15.80;99.90;;;;;;5459221;26;20220;-38
2024/04/14 01:15:45;;;;;;;2.70;2.50;;;15.80;99.90;;;;;;5488936;26;20232;-38
2024/04/14 01:18:10;;;;;;;2.30;2.10;;;15.90;99.90;;;;;;5487977;26;20233;-38
2024/04/14 01:20:36;;;;;;;2.50;2.23;;;15.90;99.90;;;;;;5489890;26;20228;-39
2024/04/14 01:23:02;;;;;;;3.83;2.90;;;15.90;99.90;;;;;;5491415;26;20208;-37
2024/04/14 01:25:28;;;;;;;2.60;2.40;;;15.90;99.90;;;;;;5489377;26;20236;-39
2024/04/14 01:27:53;;;;;;;2.20;2.00;;;15.90;99.90;;;;;;5486867;26;20279;-37
2024/04/14 01:30:19;;;;;;;2.73;2.53;;;15.90;99.90;;;;;;5487248;26;20546;-39
2024/04/14 01:32:44;;;;;;;3.00;2.70;;;15.80;99.90;;;;;;5486670;26;20291;-37
2024/04/14 01:35:10;;;;;;;2.83;2.53;;;15.80;99.90;;;;;;5486300;26;20610;-41
2024/04/14 01:37:35;;;;;;;3.13;2.60;;;15.80;99.90;;;;;;5483866;26;20263;-37
2024/04/14 01:40:01;;;;;;;6.70;3.10;;;15.70;99.90;;;;;;5485204;26;20228;-39
2024/04/14 01:42:28;;;;;;;3.10;2.80;;;15.70;99.90;;;;;;5486443;26;20274;-39
2024/04/14 01:44:54;;;;;;;4.73;2.80;;;15.60;99.90;;;;;;5453753;26;20275;-39
2024/04/14 01:47:19;;;;;;;3.37;2.40;;;15.70;99.90;;;;;;5452963;26;20458;-39
2024/04/14 01:49:45;;;;;;;2.53;2.33;;;15.70;99.90;;;;;;5486293;26;20321;-39
2024/04/14 01:52:11;;;;;;;3.43;2.77;;;15.60;99.90;;;;;;5486660;26;20228;-39
2024/04/14 01:54:36;;;;;;;3.63;2.90;;;15.60;99.90;;;;;;5485943;26;20225;-40
2024/04/14 01:57:02;;;;;;;4.10;3.00;;;15.50;99.90;;;;;;5424395;26;20296;-39
2024/04/14 01:59:27;;;;;;;4.00;2.87;;;15.50;99.90;;;;;;5488242;26;20291;-39
2024/04/14 02:01:53;;;;;;;3.67;2.87;;;15.50;99.90;;;;;;5487467;26;20216;-39
2024/04/14 02:04:18;;;;;;;5.70;2.90;;;15.50;99.90;;;;;;5490134;26;20255;-38
2024/04/14 02:06:44;;;;;;;2.87;2.67;;;15.50;99.90;;;;;;5491062;26;20482;-40
2024/04/14 02:09:10;;;;;;;4.00;3.00;;;15.50;99.90;;;;;;5487971;26;20228;-38
2024/04/14 02:11:37;;;;;;;4.10;2.83;;;15.50;99.90;;;;;;5490363;26;20538;-39
2024/04/14 02:14:02;;;;;;;3.47;2.80;;;15.40;99.90;;;;;;5488234;26;20490;-39
2024/04/14 02:16:28;;;;;;;3.03;2.77;;;15.40;99.90;;;;;;5486800;26;20220;-38
2024/04/14 02:18:54;;;;;;;3.80;3.40;;;15.40;99.90;;;;;;5453517;26;20566;-38
2024/04/14 02:21:19;;;;;;;3.87;3.27;;;15.40;99.90;;;;;;5486851;26;20284;-39
2024/04/14 02:23:45;;;;;;;3.90;3.27;;;15.40;99.90;;;;;;5487965;26;20225;-39
2024/04/14 02:26:10;;;;;;;7.20;2.73;;;15.30;99.90;;;;;;5489481;26;20255;-39
2024/04/14 02:28:36;;;;;;;4.17;3.33;;;15.30;99.90;;;;;;5458985;26;20260;-40
2024/04/14 02:31:02;;;;;;;3.43;3.13;;;15.30;99.90;;;;;;5458604;26;20236;-39
2024/04/14 02:33:27;;;;;;;3.47;2.57;;;15.30;99.90;;;;;;5492563;26;20228;-39
2024/04/14 02:36:00;;;;;;;3.33;2.53;;;15.30;99.90;;;;;;5492531;26;20283;-38
2024/04/14 02:38:27;;;;;;;4.00;3.10;;;15.40;99.90;;;;;;5492740;26;20284;-38
2024/04/14 02:40:56;;;;;;;2.90;2.70;;;15.40;99.90;;;;;;5459987;26;20882;-38
2024/04/14 02:43:22;;;;;;;3.03;2.80;;;15.30;99.90;;;;;;5491582;26;20453;-40
2024/04/14 02:45:49;;;;;;;4.33;2.83;;;15.30;99.90;;;;;;5490931;26;20510;-39
2024/04/14 02:48:17;;;;;;;3.50;2.80;;;15.30;99.90;;;;;;5457315;26;20241;-38
2024/04/14 02:50:43;;;;;;;5.27;3.03;;;15.20;99.90;;;;;;5489321;26;20446;-36
2024/04/14 02:53:12;;;;;;;3.30;3.00;;;15.20;99.90;;;;;;5489849;26;20531;-36
2024/04/14 02:59:00;;;;;;;3.57;2.97;;;15.20;99.90;;;;;;5504967;26;20625;-37
2024/04/14 03:01:26;;;;;;;3.93;2.83;;;15.20;99.90;;;;;;5497172;26;20448;-38
2024/04/14 03:03:52;;;;;;;5.10;2.93;;;15.20;99.90;;;;;;5529212;26;20292;-38
2024/04/14 03:06:18;;;;;;;3.87;2.93;;;15.30;99.90;;;;;;5527052;26;20464;-37
2024/04/14 03:08:43;;;;;;;3.83;2.67;;;15.20;99.90;;;;;;5492872;26;20328;-40
2024/04/14 03:11:09;;;;;;;4.40;3.10;;;15.20;99.90;;;;;;5527031;26;20227;-38
2024/04/14 03:13:35;;;;;;;3.37;2.93;;;15.10;99.90;;;;;;5529132;26;20271;-37
2024/04/14 03:16:04;;;;;;;5.23;3.57;;;15.10;99.90;;;;;;5530663;26;20448;-38
2024/04/14 03:18:30;;;;;;;3.30;2.93;;;15.10;99.90;;;;;;5530075;26;20250;-38
2024/04/14 03:20:56;;;;;;;4.70;2.57;;;15.10;99.90;;;;;;5530210;26;20509;-36
2024/04/14 03:23:22;;;;;;;3.90;3.60;;;15.00;99.90;;;;;;5529987;26;20508;-38
2024/04/14 03:25:48;;;;;;;4.03;2.40;;;15.00;99.90;;;;;;5529575;26;20889;-38
2024/04/14 03:28:14;;;;;;;3.23;2.90;;;15.00;99.90;;;;;;5529821;25;20452;-38
2024/04/14 03:30:39;;;;;;;4.40;2.80;;;15.00;99.90;;;;;;5529941;26;20212;-38
2024/04/14 03:33:05;;;;;;;2.93;2.67;;;15.00;99.90;;;;;;5497650;26;20239;-37
2024/04/14 03:35:30;;;;;;;4.60;4.20;;;15.00;99.90;;;;;;5465014;26;20251;-38
2024/04/14 03:37:56;;;;;;;3.37;2.90;;;14.90;99.90;;;;;;5526038;26;20251;-37
2024/04/14 03:40:21;;;;;;;3.50;3.20;;;14.90;99.90;;;;;;5525505;26;20244;-37
2024/04/14 03:42:47;;;;;;;3.90;3.20;;;15.00;99.90;;;;;;5527016;26;20251;-38
2024/04/14 03:45:13;;;;;;;3.23;2.93;;;15.00;97.40;;;;;;5522563;26;20220;-39
2024/04/14 03:47:38;;;;;;;3.23;2.93;;;15.00;98.10;;;;;;5524428;26;20224;-38
2024/04/14 03:50:04;;;;;;;3.00;2.70;;;15.00;98.00;;;;;;5525996;26;20559;-38
2024/04/14 03:52:30;;;;;;;3.60;2.87;;;15.00;99.30;;;;;;5526718;26;20305;-38
2024/04/14 03:54:56;;;;;;;2.77;2.57;;;15.00;93.20;;;;;;5528032;26;20460;-38
2024/04/14 03:57:21;;;;;;;3.90;3.50;;;15.00;93.20;;;;;;5528254;26;20231;-40
2024/04/14 03:59:48;;;;;;;3.07;2.77;;;15.00;85.90;;;;;;5495084;26;20255;-38
2024/04/14 04:02:14;;;;;;;2.80;2.60;;;15.00;88.50;;;;;;5527714;26;20278;-38
2024/04/14 04:04:40;;;;;;;6.43;3.47;;;15.00;85.90;;;;;;5527790;26;20504;-40
2024/04/14 04:07:06;;;;;;;3.80;2.97;;;14.90;93.20;;;;;;5494411;26;20448;-38
2024/04/14 04:09:31;;;;;;;3.10;2.80;;;15.00;79.50;;;;;;5526828;26;20224;-38
2024/04/14 04:11:57;;;;;;;3.23;2.93;;;14.90;84.80;;;;;;5526833;26;20740;-38
2024/04/14 04:14:22;;;;;;;3.33;2.77;;;14.90;91.40;;;;;;5525542;26;20335;-37
2024/04/14 04:16:51;;;;;;;3.30;2.80;;;14.80;96.10;;;;;;5491398;26;20231;-37
2024/04/14 04:19:16;;;;;;;4.33;3.40;;;14.80;99.90;;;;;;5526245;26;20223;-41
2024/04/14 04:21:42;;;;;;;3.00;2.80;;;14.80;99.80;;;;;;5524219;26;20493;-38
2024/04/14 04:24:08;;;;;;;3.23;2.93;;;14.70;99.90;;;;;;5527618;26;20570;-38
2024/04/14 04:26:33;;;;;;;4.07;3.10;;;14.70;99.90;;;;;;5526497;26;20228;-40
2024/04/14 04:28:59;;;;;;;2.63;2.43;;;14.70;99.90;;;;;;5527076;26;20340;-38
2024/04/14 04:31:24;;;;;;;4.20;3.40;;;14.70;99.90;;;;;;5528608;26;20510;-38
2024/04/14 04:33:50;;;;;;;4.63;3.50;;;14.70;99.90;;;;;;5529210;26;20351;-37
2024/04/14 04:36:17;;;;;;;3.97;3.17;;;14.60;99.90;;;;;;5528560;26;20228;-39
2024/04/14 04:38:43;;;;;;;3.27;2.90;;;14.60;99.90;;;;;;5528971;26;20224;-37
2024/04/14 04:41:10;;;;;;;5.13;2.80;;;14.50;99.90;;;;;;5528855;26;20584;-38
2024/04/14 04:43:36;;;;;;;4.60;3.00;;;14.40;99.90;;;;;;5465136;26;20460;-38
2024/04/14 04:46:02;;;;;;;4.00;3.40;;;14.40;99.90;;;;;;5523497;26;20539;-39
2024/04/14 04:48:28;;;;;;;3.90;3.30;;;14.30;99.90;;;;;;5522863;26;20448;-38
2024/04/14 04:50:53;;;;;;;3.83;2.97;;;14.30;99.90;;;;;;5525025;26;20232;-39
2024/04/14 04:53:19;;;;;;;5.07;3.20;;;14.30;99.90;;;;;;5526366;26;20223;-39
2024/04/14 04:55:44;;;;;;;3.40;3.10;;;14.20;99.90;;;;;;5526403;26;20274;-39
2024/04/14 04:58:11;;;;;;;4.30;2.70;;;14.30;99.90;;;;;;5527122;26;20243;-39
2024/04/14 05:00:37;;;;;;;2.97;2.73;;;14.20;99.90;;;;;;5527457;26;20346;-39
2024/04/14 05:03:02;;;;;;;5.60;3.33;;;14.20;99.90;;;;;;5527814;26;20862;-38
2024/04/14 05:05:28;;;;;;;3.40;2.80;;;14.30;99.90;;;;;;5526223;26;20227;-38
2024/04/14 05:07:53;;;;;;;3.50;3.20;;;14.30;99.90;;;;;;5527081;26;20228;-39
2024/04/14 05:10:19;;;;;;;4.10;3.03;;;14.30;99.90;;;;;;5528157;26;20211;-37
2024/04/14 05:12:44;;;;;;;3.53;3.23;;;14.30;99.90;;;;;;5526920;26;20219;-38
2024/04/14 05:15:10;;;;;;;4.33;3.27;;;14.40;99.90;;;;;;5526998;26;20371;-42
2024/04/14 05:17:36;;;;;;;4.33;3.07;;;14.40;99.90;;;;;;5527740;26;20223;-39
2024/04/14 05:20:01;;;;;;;3.77;3.27;;;14.50;99.90;;;;;;5526321;26;20455;-39
2024/04/14 05:22:27;;;;;;;2.90;2.70;;;14.50;99.90;;;;;;5526471;26;20224;-39
2024/04/14 05:24:53;;;;;;;3.53;2.63;;;14.60;99.90;;;;;;5526956;26;20316;-38
2024/04/14 05:27:19;;;;;;;4.80;2.90;;;14.60;99.90;;;;;;5527219;26;20290;-39
2024/04/14 05:29:45;;;;;;;3.80;2.43;;;14.70;99.90;;;;;;5527401;26;20505;-37
2024/04/14 05:32:15;;;;;;;3.10;2.53;;;14.80;99.90;;;;;;5529098;26;20480;-38
2024/04/14 05:34:41;;;;;;;2.97;2.43;;;14.80;99.90;;;;;;5526927;26;20444;-41
2024/04/14 05:37:07;;;;;;;4.50;2.87;;;14.90;99.90;;;;;;5528316;26;20498;-39
2024/04/14 05:39:33;;;;;;;3.70;3.30;;;15.00;99.90;;;;;;5526740;26;20436;-38
2024/04/14 05:41:58;;;;;;;2.63;2.43;;;15.10;99.90;;;;;;5525174;26;20228;-37
2024/04/14 05:44:24;;;;;;;2.93;2.60;;;15.20;99.90;;;;;;5527251;26;20228;-37
2024/04/14 05:46:50;;;;;;;4.53;3.43;;;15.30;99.90;;;;;;5528386;26;20254;-38
2024/04/14 05:49:16;;;;;;;2.60;2.40;;;15.50;99.90;;;;;;5524508;26;20216;-39
2024/04/14 05:51:41;;;;;;;3.93;2.60;;;15.60;99.90;;;;;;5524200;26;20664;-39
2024/04/14 05:54:07;;;;;;;3.20;2.90;;;15.80;99.90;;;;;;5523380;26;20840;-39
2024/04/14 05:56:32;;;;;;;3.67;3.10;;;15.90;99.90;;;;;;5491936;26;20675;-38
2024/04/14 05:58:58;;;;;;;3.33;3.03;;;16.00;99.90;;;;;;5525997;26;20297;-37
2024/04/14 06:01:23;;;;;;;4.47;3.13;;;16.10;99.90;;;;;;5525272;26;20224;-41
2024/04/14 06:03:49;;;;;;;6.87;3.00;;;16.30;99.90;;;;;;5527281;26;20266;-38
2024/04/14 06:06:17;;;;;;;3.37;3.03;;;16.40;98.90;;;;;;5526489;26;20223;-38
2024/04/14 06:08:43;;;;;;;3.23;2.60;;;16.50;93.40;;;;;;5529362;26;20303;-38
2024/04/14 06:11:08;;;;;;;2.77;2.30;;;16.60;90.60;;;;;;5530809;26;20882;-38
2024/04/14 06:13:35;;;;;;;4.20;3.20;;;16.70;87.70;;;;;;5530573;26;20320;-40
2024/04/14 06:16:00;;;;;;;3.57;2.70;;;16.80;75.60;;;;;;5531696;26;20530;-38
2024/04/14 06:18:26;;;;;;;4.10;2.83;;;17.00;54.80;;;;;;5531938;26;20859;-39
2024/04/14 06:20:51;;;;;;;3.70;3.13;;;17.10;52.40;;;;;;5532248;26;20527;-38
2024/04/14 06:23:17;;;;;;;8.87;3.20;;;17.20;38.10;;;;;;5533327;26;20223;-38
2024/04/14 06:25:42;;;;;;;2.93;2.73;;;17.20;35.00;;;;;;5534493;26;20235;-38
2024/04/14 06:28:08;;;;;;;3.17;2.70;;;17.20;34.30;;;;;;5534506;26;20208;-40
2024/04/14 06:30:33;;;;;;;3.70;2.80;;;17.30;31.70;;;;;;5535277;26;20292;-38
2024/04/14 06:32:59;;;;;;;3.50;2.77;;;17.40;32.20;;;;;;5532261;26;20606;-39
2024/04/14 06:35:25;;;;;;;3.50;3.20;;;17.40;25.30;;;;;;5534092;26;20360;-39
2024/04/14 06:37:51;;;;;;;3.03;2.60;;;17.50;17.80;;;;;;5533315;26;20460;-39
2024/04/14 06:40:16;;;;;;;2.53;2.33;;;17.60;11.50;;;;;;5535718;26;20308;-39
2024/04/14 06:42:42;;;;;;;3.50;3.20;;;17.70;11.10;;;;;;5487512;26;20258;-40
2024/04/14 06:45:08;;;;;;;2.47;2.27;;;17.90;11.50;;;;;;5520792;26;20285;-40
2024/04/14 06:47:33;;;;;;;3.70;2.43;;;18.20;4.30;;;;;;5530216;26;20283;-39
2024/04/14 06:49:59;;;;;;;4.53;2.47;;;18.40;2.90;;;;;;5494554;26;20229;-40
2024/04/14 06:52:24;;;;;;;2.73;2.33;;;18.60;1.00;;;;;;5494538;26;20329;-41
2024/04/14 06:54:50;;;;;;;3.70;2.83;;;18.90;1.00;;;;;;5516687;26;20215;-39
2024/04/14 06:57:16;;;;;;;4.47;3.27;;;19.00;1.00;;;;;;5493884;26;20545;-39
2024/04/14 06:59:42;;;;;;;3.10;2.63;;;19.10;1.00;;;;;;5505933;26;20239;-38
2024/04/14 07:02:10;;;;;;;2.77;2.47;;;19.10;1.00;;;;;;5530692;26;20503;-42
2024/04/14 07:04:36;;;;;;;2.80;2.20;;;19.10;1.00;;;;;;5529460;26;20291;-40
2024/04/14 07:07:02;;;;;;;2.43;2.23;;;19.20;1.00;;;;;;5531252;26;20543;-40
2024/04/14 07:09:27;;;;;;;3.63;3.17;;;19.30;1.00;;;;;;5517150;26;20229;-41
2024/04/14 07:11:53;;;;;;;2.80;2.60;;;19.50;1.00;;;;;;5494884;26;20313;-40
2024/04/14 07:14:19;;;;;;;3.47;2.90;;;19.50;1.00;;;;;;5494349;26;20225;-40
2024/04/14 07:16:45;;;;;;;2.83;2.47;;;19.50;1.00;;;;;;5494621;26;20225;-40
2024/04/14 07:19:12;;;;;;;2.63;2.40;;;19.50;1.00;;;;;;5496364;26;20533;-42
2024/04/14 07:21:39;;;;;;;2.60;2.30;;;19.40;1.00;;;;;;5509916;26;20262;-40
2024/04/14 07:24:05;;;;;;;4.53;3.17;;;19.40;1.00;;;;;;5531592;26;20945;-39
2024/04/14 07:26:31;;;;;;;2.30;2.00;;;19.50;1.00;;;;;;5500980;26;20462;-40
2024/04/14 07:28:56;;;;;;;3.17;2.57;;;19.60;1.00;;;;;;5491869;26;20224;-39
2024/04/14 07:31:22;;;;;;;2.90;2.30;;;19.60;1.00;;;;;;5492114;26;20669;-39
2024/04/14 07:33:48;;;;;;;4.17;3.33;;;19.80;1.00;;;;;;5459076;26;20239;-41
2024/04/14 07:36:13;;;;;;;2.77;2.57;;;19.70;1.00;;;;;;5493318;26;20233;-40
2024/04/14 07:38:39;;;;;;;2.57;2.37;;;19.90;1.00;;;;;;5492259;26;20283;-40
2024/04/14 07:41:05;;;;;;;3.03;2.50;;;20.10;1.00;;;;;;5494328;26;20225;-40
2024/04/14 07:43:31;;;;;;;5.03;2.27;;;20.30;1.00;;;;;;5495386;26;20518;-41
2024/04/14 07:45:57;;;;;;;2.43;2.23;;;20.50;1.00;;;;;;5496405;26;20307;-39
2024/04/14 07:48:24;;;;;;;2.43;2.13;;;20.80;1.00;;;;;;5469354;26;20805;-41
2024/04/14 07:50:51;;;;;;;2.67;2.20;;;20.80;1.00;;;;;;5498667;26;20289;-40
2024/04/14 07:53:17;;;;;;;3.70;2.30;;;21.00;1.00;;;;;;5460492;26;20516;-38
2024/04/14 07:55:43;;;;;;;4.03;2.40;;;21.20;1.00;;;;;;5491309;26;20438;-38
2024/04/14 07:58:08;;;;;;;3.03;2.70;;;21.20;1.00;;;;;;5492406;26;20490;-39
2024/04/14 08:00:34;;;;;;;3.07;2.50;;;21.40;1.00;;;;;;5493594;26;20221;-41
2024/04/14 08:02:59;;;;;;;2.50;2.30;;;21.60;1.00;;;;;;5458786;26;20228;-38
2024/04/14 08:05:25;;;;;;;3.60;2.30;;;21.70;1.00;;;;;;5487794;26;20284;-38
2024/04/14 08:07:51;;;;;;;3.97;2.73;;;21.80;1.00;;;;;;5489749;26;20271;-42
2024/04/14 08:10:16;;;;;;;4.17;2.70;;;21.60;1.00;;;;;;5472013;26;20680;-48
2024/04/14 08:12:42;;;;;;;3.27;2.50;;;21.40;1.00;;;;;;5525752;25;20283;-42
2024/04/14 08:15:08;;;;;;;3.50;2.40;;;21.40;1.00;;;;;;5526790;26;20235;-39
2024/04/14 08:17:33;;;;;;;3.20;2.60;;;21.60;1.00;;;;;;5532742;25;20514;-40
2024/04/14 08:19:59;;;;;;;3.70;2.63;;;21.90;1.00;;;;;;5496540;25;20293;-48
2024/04/14 08:22:25;;;;;;;3.50;2.40;;;22.00;1.00;;;;;;5528920;26;20223;-48
2024/04/14 08:24:50;;;;;;;7.57;4.80;;;22.20;1.00;;;;;;5494035;25;20533;-47
2024/04/14 08:27:16;;;;;;;3.83;2.77;;;22.30;1.00;;;;;;5525343;25;20273;-49
2024/04/14 08:29:41;;;;;;;4.93;2.87;;;22.50;1.00;;;;;;5523044;25;20239;-47
2024/04/14 08:32:07;;;;;;;4.70;2.53;;;22.70;1.00;;;;;;5523879;26;20296;-48
2024/04/14 08:34:32;;;;;;;4.77;2.63;;;22.80;1.00;;;;;;5526876;25;20459;-49
2024/04/14 08:36:59;;;;;;;3.63;2.70;;;23.00;1.00;;;;;;5525326;26;20857;-48
2024/04/14 08:39:24;;;;;;;3.50;2.77;;;23.20;1.00;;;;;;5523604;25;20285;-47
2024/04/14 08:41:50;;;;;;;2.50;2.07;;;23.30;1.00;;;;;;5521936;25;20531;-47
2024/04/14 08:44:16;;;;;;;3.23;2.93;;;23.40;1.00;;;;;;5493233;26;20682;-48
2024/04/14 08:46:42;;;;;;;3.30;2.50;;;23.70;1.00;;;;;;5494068;26;20212;-49
2024/04/14 08:49:10;;;;;;;2.60;2.40;;;24.00;1.00;;;;;;5491272;26;20254;-48
2024/04/14 08:51:36;;;;;;;2.63;2.43;;;24.10;1.00;;;;;;5526807;26;20460;-47
2024/04/14 08:54:02;;;;;;;2.97;2.70;;;24.10;1.00;;;;;;5527276;25;20986;-48
2024/04/14 08:56:27;;;;;;;3.13;2.67;;;24.30;1.00;;;;;;5526991;25;20235;-50
2024/04/14 08:58:57;;;;;;;3.40;2.53;;;24.20;1.00;;;;;;5494050;26;20224;-48
2024/04/14 09:01:23;;;;;;;2.57;2.37;;;24.30;1.00;;;;;;5525881;25;20613;-48
2024/04/14 09:03:48;;;;;;;4.57;2.63;;;24.30;1.00;;;;;;5524265;25;20969;-48
2024/04/14 09:06:14;;;;;;;2.97;2.70;;;24.30;1.00;;;;;;5526649;25;20235;-48
2024/04/14 09:08:40;;;;;;;3.57;2.57;;;24.20;1.00;;;;;;5524723;26;20270;-49
2024/04/14 09:11:07;;;;;;;2.90;2.70;;;24.10;1.00;;;;;;5521681;25;20337;-49
2024/04/14 09:13:33;;;;;;;2.90;2.53;;;24.10;1.00;;;;;;5488253;26;20533;-51
2024/04/14 09:15:59;;;;;;;5.07;2.90;;;24.20;1.00;;;;;;5521326;25;20520;-50
2024/04/14 09:18:24;;;;;;;4.93;2.87;;;24.50;1.00;;;;;;5521018;25;20424;-48
2024/04/14 09:20:50;;;;;;;2.93;2.67;;;24.70;1.00;;;;;;5525172;25;20231;-49
2024/04/14 09:23:16;;;;;;;4.47;3.23;;;25.00;1.00;;;;;;5525261;25;20215;-48
2024/04/14 09:25:43;;;;;;;3.87;2.93;;;25.30;1.00;;;;;;5495559;25;20225;-50
2024/04/14 09:28:10;;;;;;;6.87;2.90;;;25.60;1.00;;;;;;5531189;25;20235;-51
2024/04/14 09:30:36;;;;;;;3.40;3.00;;;25.90;1.00;;;;;;5498044;25;20458;-49
2024/04/14 09:33:03;;;;;;;3.23;2.70;;;26.30;1.00;;;;;;5488808;26;20454;-48
2024/04/14 09:35:28;;;;;;;3.03;2.80;;;26.40;1.00;;;;;;5458072;26;20505;-49
2024/04/14 09:37:54;;;;;;;3.03;2.73;;;26.30;1.00;;;;;;5500023;26;20442;-48
2024/04/14 09:40:22;;;;;;;3.03;2.83;;;26.40;1.00;;;;;;5527490;26;20219;-48
2024/04/14 09:42:50;;;;;;;4.50;3.23;;;26.90;1.00;;;;;;5526648;26;20444;-50
2024/04/14 09:45:16;;;;;;;3.00;2.80;;;27.60;1.00;;;;;;5527941;26;20448;-49
2024/04/14 09:47:43;;;;;;;3.37;3.07;;;28.10;1.00;;;;;;5524190;26;20582;-50
2024/04/14 09:50:09;;;;;;;3.40;3.10;;;28.50;1.00;;;;;;5525834;26;20254;-49
2024/04/14 09:52:36;;;;;;;3.13;2.80;;;28.70;1.00;;;;;;5514483;26;20545;-49
2024/04/14 09:55:04;;;;;;;3.17;2.87;;;28.90;1.00;;;;;;5460426;26;20529;-49
2024/04/14 09:57:30;;;;;;;2.60;2.33;;;29.20;1.00;;;;;;5494016;26;20457;-51
2024/04/14 09:59:56;;;;;;;4.20;3.03;;;29.70;1.00;;;;;;5456601;26;21207;-51
2024/04/14 10:02:34;;;;;;;3.40;3.20;;;30.00;1.00;;;;;;5458424;26;20840;-50
2024/04/14 10:05:01;;;;;;;2.90;2.70;;;30.30;1.00;;;;;;5456726;26;20876;-52
2024/04/14 10:07:27;;;;;;;3.77;2.70;;;30.50;1.00;;;;;;5455701;26;20468;-50
2024/04/14 10:09:55;;;;;;;3.10;2.90;;;30.80;1.00;;;;;;5490426;26;20606;-49
2024/04/14 10:12:22;;;;;;;4.73;3.60;;;31.10;1.00;;;;;;5453515;26;20562;-51
2024/04/14 10:14:48;;;;;;;5.40;3.37;;;31.10;1.00;;;;;;5486510;26;20901;-48
2024/04/14 10:17:20;;;;;;;3.57;3.20;;;30.50;1.00;;;;;;5487461;26;20446;-51
2024/04/14 10:19:59;;;;;;;2.87;2.67;;;30.40;1.00;;;;;;5486717;26;20862;-47
2024/04/14 10:22:34;;;;;;;3.57;2.77;;;30.20;1.00;;;;;;5487012;26;20422;-48
2024/04/14 10:25:00;;;;;;;4.30;3.50;;;30.00;1.00;;;;;;5486522;26;20914;-47
2024/04/14 10:27:29;;;;;;;3.23;2.80;;;30.20;1.00;;;;;;5487399;26;20475;-49
2024/04/14 10:29:57;;;;;;;3.97;3.00;;;30.60;1.00;;;;;;5488816;26;20272;-49
2024/04/14 10:32:23;;;;;;;2.87;2.60;;;30.80;1.00;;;;;;5487122;26;20438;-50
2024/04/14 10:34:49;;;;;;;3.50;3.20;;;30.90;1.00;;;;;;5486176;26;20418;-50
2024/04/14 10:37:28;;;;;;;3.60;3.30;;;31.00;1.00;;;;;;5486402;26;20283;-48
2024/04/14 10:39:55;;;;;;;2.60;2.40;;;31.40;1.00;;;;;;5456955;26;20280;-53
2024/04/14 10:42:24;;;;;;;3.60;3.10;;;31.80;1.00;;;;;;5489117;26;20540;-48
2024/04/14 10:44:50;;;;;;;6.47;2.73;;;32.20;1.00;;;;;;5488012;26;20490;-50
2024/04/14 10:47:17;;;;;;;2.80;2.60;;;32.30;1.00;;;;;;5489126;26;20989;-51
2024/04/14 10:49:52;;;;;;;2.70;2.50;;;32.00;1.00;;;;;;5489140;26;20456;-48
2024/04/14 10:52:17;;;;;;;3.37;3.07;;;32.20;1.00;;;;;;5488144;26;20718;-52
2024/04/14 10:54:43;;;;;;;3.37;3.07;;;32.20;1.00;;;;;;5491532;26;20479;-54
2024/04/14 10:57:09;;;;;;;4.17;3.10;;;32.20;1.00;;;;;;5494767;26;20490;-50
2024/04/14 10:59:36;;;;;;;3.37;2.87;;;32.10;1.00;;;;;;5459973;26;20485;-50
2024/04/14 11:02:04;;;;;;;3.27;2.97;;;32.00;1.00;;;;;;5492712;26;20508;-49
2024/04/14 11:04:32;;;;;;;2.90;2.70;;;31.60;1.00;;;;;;5491271;26;20564;-49
2024/04/14 11:06:59;;;;;;;3.13;2.93;;;31.40;1.00;;;;;;5490266;26;20462;-53
2024/04/14 11:09:25;;;;;;;2.97;2.60;;;31.30;1.00;;;;;;5490584;26;20497;-49
2024/04/14 11:11:51;;;;;;;3.13;2.83;;;31.30;1.00;;;;;;5461098;26;20558;-53
2024/04/14 11:14:21;;;;;;;4.00;3.10;;;31.30;1.00;;;;;;5460045;26;20454;-50
2024/04/14 11:16:48;;;;;;;3.80;2.87;;;31.20;1.00;;;;;;5460900;26;20971;-49
2024/04/14 11:19:14;;;;;;;3.10;2.90;;;30.90;1.00;;;;;;5491373;26;20940;-51
2024/04/14 11:21:39;;;;;;;3.93;3.47;;;30.80;1.00;;;;;;5488537;26;20454;-48
2024/04/14 11:24:12;;;;;;;3.77;2.90;;;30.80;1.00;;;;;;5487193;26;20312;-48
2024/04/14 11:26:39;;;;;;;3.30;3.00;;;30.60;1.00;;;;;;5490380;26;20224;-50
2024/04/14 11:29:05;;;;;;;3.20;2.50;;;30.60;1.00;;;;;;5491619;26;20410;-52
2024/04/14 11:31:31;;;;;;;3.60;2.73;;;31.00;1.00;;;;;;5488596;26;20463;-53
2024/04/14 11:33:58;;;;;;;2.90;2.70;;;31.10;1.00;;;;;;5457784;26;20229;-48
2024/04/14 11:36:32;;;;;;;7.63;6.93;;;31.50;1.00;;;;;;5493197;26;20486;-48
2024/04/14 11:38:59;;;;;;;4.20;2.97;;;31.70;1.00;;;;;;5493181;26;20942;-47
2024/04/14 11:41:25;;;;;;;2.80;2.60;;;31.90;1.00;;;;;;5459918;26;20977;-48
2024/04/14 11:43:50;;;;;;;3.20;2.90;;;32.00;1.00;;;;;;5459074;26;20430;-48
2024/04/14 11:46:17;;;;;;;3.23;2.63;;;32.20;1.00;;;;;;5459111;26;20279;-49
2024/04/14 11:48:43;;;;;;;3.00;2.80;;;32.30;1.00;;;;;;5488717;26;20701;-48
2024/04/14 11:51:09;;;;;;;3.03;2.70;;;32.40;1.00;;;;;;5489336;26;20426;-48
2024/04/14 11:53:35;;;;;;;4.40;2.80;;;32.40;1.00;;;;;;5454090;26;20237;-51
2024/04/14 11:56:01;;;;;;;4.40;2.80;;;32.60;1.00;;;;;;5487536;26;20481;-49
2024/04/14 11:58:27;;;;;;;3.60;2.67;;;32.80;1.00;;;;;;5487742;26;20438;-49
2024/04/14 12:00:53;;;;;;;3.13;2.77;;;33.00;1.00;;;;;;5489234;26;20928;-50
2024/04/14 12:03:18;;;;;;;2.60;2.40;;;33.20;1.00;;;;;;5490747;26;20244;-48
2024/04/14 12:05:44;;;;;;;3.80;3.00;;;33.30;1.00;;;;;;5487703;26;20279;-49
2024/04/14 12:08:10;;;;;;;3.57;3.23;;;33.20;1.00;;;;;;5490874;26;20213;-52
2024/04/14 12:10:35;;;;;;;3.33;2.67;;;33.30;1.00;;;;;;5488956;26;20271;-48
2024/04/14 12:13:01;;;;;;;3.67;2.93;;;33.50;1.00;;;;;;5459589;26;20475;-49
2024/04/14 12:15:26;;;;;;;3.03;2.77;;;33.60;1.00;;;;;;5491773;26;20232;-50
2024/04/14 12:17:52;;;;;;;3.97;2.60;;;33.50;1.00;;;;;;5491546;26;20232;-48
2024/04/14 12:20:18;;;;;;;3.23;2.93;;;33.60;1.00;;;;;;5491977;26;20280;-51
2024/04/14 12:22:44;;;;;;;3.17;2.87;;;33.60;1.00;;;;;;5491393;26;20668;-51
2024/04/14 12:25:09;;;;;;;3.70;2.83;;;33.60;1.00;;;;;;5491371;26;20515;-47
2024/04/14 12:27:35;;;;;;;2.63;2.43;;;33.30;1.00;;;;;;5490628;26;20279;-53
2024/04/14 12:30:01;;;;;;;2.60;2.40;;;33.20;1.00;;;;;;5487506;26;20228;-51
2024/04/14 12:32:27;;;;;;;2.80;2.13;;;32.30;1.00;;;;;;5485928;26;20253;-50
2024/04/14 12:34:53;;;;;;;2.80;2.30;;;31.30;1.00;;;;;;5487375;26;20309;-50
2024/04/14 12:37:18;;;;;;;3.00;2.70;;;31.30;1.00;;;;;;5485851;26;20454;-52
2024/04/14 12:39:44;;;;;;;3.13;2.83;;;31.50;1.00;;;;;;5487976;26;20225;-48
2024/04/14 12:42:09;;;;;;;3.40;3.03;;;31.50;1.00;;;;;;5487222;26;20666;-48
2024/04/14 12:44:35;;;;;;;3.00;2.70;;;32.00;1.00;;;;;;5489120;26;20240;-50
2024/04/14 12:47:00;;;;;;;2.87;2.67;;;32.20;1.00;;;;;;5489402;26;20255;-49
2024/04/14 12:49:26;;;;;;;3.30;2.60;;;31.80;1.00;;;;;;5491714;26;20259;-49